Time;durP1;ratioP1;P1;durP2;ratioP2;P2;SDS_P1;SDS_P2;PMS_P1;PMS_P2;Temp;Humidity;BMP_temperature;BMP_pressure;BME280_temperature;BME280_humidity;BME280_pressure;Samples;Min_cycle;Max_cycle;Signal;HPM_P1;HPM_P2
2023/01/26 00:01:36;;;;;;;;;68.75;51.00;;;;;3.46;71.58;101956.88;5059210;28;45425;-60
2023/01/26 00:04:01;;;;;;;;;77.50;51.50;;;;;3.46;72.09;101962.16;5056081;28;45767;-64
2023/01/26 00:06:26;;;;;;;;;68.50;53.75;;;;;3.47;71.71;101944.63;5057356;28;45582;-62
2023/01/26 00:08:55;;;;;;;;;71.25;55.00;;;;;3.52;71.58;101937.59;5057521;28;45315;-64
2023/01/26 00:11:23;;;;;;;;;56.25;46.50;;;;;3.49;71.16;101930.56;5057701;28;45360;-63
2023/01/26 00:13:49;;;;;;;;;80.50;52.25;;;;;3.63;71.36;101934.88;5058634;28;45384;-62
2023/01/26 00:16:15;;;;;;;;;75.00;53.25;;;;;3.60;71.42;101921.75;5058356;28;45492;-62
2023/01/26 00:18:42;;;;;;;;;74.50;52.25;;;;;3.64;71.23;101918.22;5058077;28;46044;-64
2023/01/26 00:21:12;;;;;;;;;69.25;52.50;;;;;3.56;71.20;101915.63;5057065;28;45304;-57
2023/01/26 00:23:37;;;;;;;;;75.75;57.50;;;;;3.56;71.73;101915.63;5058675;28;45445;-62
2023/01/26 00:26:06;;;;;;;;;61.50;50.25;;;;;3.53;72.26;101905.16;5056945;28;45652;-58
2023/01/26 00:28:32;;;;;;;;;72.25;52.25;;;;;3.60;72.12;101908.59;5056616;28;45550;-62
2023/01/26 00:31:08;;;;;;;;;69.50;51.50;;;;;3.60;72.41;101898.06;5059097;28;45662;-59
2023/01/26 00:33:33;;;;;;;;;57.00;50.25;;;;;3.67;72.87;101897.16;5058152;28;45284;-57
2023/01/26 00:35:59;;;;;;;;;68.25;49.50;;;;;3.67;72.84;101882.25;5073095;28;55617;-60
2023/01/26 00:38:25;;;;;;;;;60.25;44.25;;;;;3.64;73.36;101881.38;5055283;28;45416;-60
2023/01/26 00:40:50;;;;;;;;;68.50;53.75;;;;;3.66;73.60;101875.25;5056245;28;45342;-58
2023/01/26 00:43:15;;;;;;;;;66.00;51.25;;;;;3.71;73.16;101888.34;5058148;28;45379;-53
2023/01/26 00:45:41;;;;;;;;;80.75;53.25;;;;;3.68;73.66;101878.72;5057465;28;45347;-60
2023/01/26 00:48:07;;;;;;;;;68.75;52.50;;;;;3.72;72.83;101874.31;5057705;28;45697;-59
2023/01/26 00:50:32;;;;;;;;;67.75;48.50;;;;;3.78;73.57;101876.91;5058045;28;45303;-59
2023/01/26 00:52:58;;;;;;;;;66.50;50.25;;;;;3.79;73.50;101870.75;5057132;28;45426;-58
2023/01/26 00:55:30;;;;;;;;;64.25;41.50;;;;;3.78;73.53;101863.75;5057353;28;45453;-58
2023/01/26 00:57:59;;;;;;;;;66.25;46.25;;;;;3.77;73.73;101861.97;5057423;28;46275;-62
2023/01/26 01:00:25;;;;;;;;;66.50;50.25;;;;;3.74;73.74;101851.50;5057646;28;45412;-67
2023/01/26 01:02:50;;;;;;;;;63.25;45.50;;;;;3.83;73.02;101862.81;5057961;28;45343;-58
2023/01/26 01:05:16;;;;;;;;;65.50;47.25;;;;;3.86;73.43;101854.03;5057535;28;45519;-61
2023/01/26 01:07:41;;;;;;;;;68.50;48.50;;;;;3.84;74.08;101842.66;5056655;28;45769;-60
2023/01/26 01:10:08;;;;;;;;;69.75;49.25;;;;;3.84;73.65;101832.13;5057106;28;45250;-61
2023/01/26 01:12:33;;;;;;;;;58.50;48.50;;;;;3.90;74.13;101839.94;5056793;28;45745;-56
2023/01/26 01:14:59;;;;;;;;;73.25;53.25;;;;;3.94;74.12;101844.31;5054937;28;45600;-59
2023/01/26 01:17:24;;;;;;;;;68.25;47.00;;;;;3.92;74.29;101838.19;5058630;28;45539;-59
2023/01/26 01:19:50;;;;;;;;;63.50;49.75;;;;;3.94;73.38;101833.78;5072837;27;45390;-64
2023/01/26 01:22:16;;;;;;;;;63.50;49.50;;;;;3.86;74.08;101822.44;5057968;28;45334;-64
2023/01/26 01:24:41;;;;;;;;;63.75;49.75;;;;;3.94;74.70;101839.06;5057557;28;45613;-59
2023/01/26 01:27:07;;;;;;;;;53.50;44.00;;;;;4.01;74.37;101846.00;5056392;28;46027;-62
2023/01/26 01:29:32;;;;;;;;;60.00;47.25;;;;;3.97;73.83;101833.75;5056446;28;47010;-62
2023/01/26 01:31:57;;;;;;;;;64.50;51.75;;;;;3.98;73.69;101824.97;5056395;28;45460;-61
2023/01/26 01:34:23;;;;;;;;;66.00;48.75;;;;;4.00;73.60;101823.19;5056260;28;45405;-64
2023/01/26 01:36:48;;;;;;;;;65.75;46.75;;;;;4.02;73.51;101829.31;5055869;28;45373;-63
2023/01/26 01:39:13;;;;;;;;;65.50;49.00;;;;;4.01;73.53;101826.69;5056098;28;45399;-63
2023/01/26 01:41:39;;;;;;;;;57.50;48.50;;;;;3.97;73.10;101823.22;5056174;28;45430;-63
2023/01/26 01:44:17;;;;;;;;;57.00;47.00;;;;;3.94;73.26;101828.53;5056325;28;45311;-65
2023/01/26 01:46:57;;;;;;;;;68.50;50.00;;;;;3.90;73.47;101832.06;5055861;28;45275;-62
2023/01/26 01:49:33;;;;;;;;;72.00;52.25;;;;;3.87;74.24;101832.09;5055759;28;45493;-64
2023/01/26 01:52:09;;;;;;;;;44.00;36.00;;;;;3.90;74.15;101829.41;5055385;28;45452;-62
2023/01/26 01:54:40;;;;;;;;;79.75;55.50;;;;;3.91;73.49;101833.81;5054791;28;45401;-63
2023/01/26 01:57:14;;;;;;;;;69.25;50.75;;;;;3.99;73.78;101831.09;5054770;28;46373;-65
2023/01/26 01:59:50;;;;;;;;;68.25;50.75;;;;;3.93;74.03;101815.38;5055053;28;45643;-66
2023/01/26 02:02:16;;;;;;;;;50.50;46.75;;;;;4.02;73.93;101825.81;5056644;28;45386;-56
2023/01/26 02:04:43;;;;;;;;;55.25;46.75;;;;;4.06;73.58;101817.00;5055827;28;45415;-55
2023/01/26 02:07:10;;;;;;;;;72.75;56.00;;;;;4.07;73.44;101813.50;5055044;28;46834;-57
2023/01/26 02:12:28;;;;;;;;;58.00;47.50;;;;;4.18;73.39;101826.56;5054791;28;45275;-58
2023/01/26 02:14:56;;;;;;;;;75.25;52.25;;;;;4.17;73.39;101820.41;5056086;28;45442;-54
2023/01/26 02:17:24;;;;;;;;;58.50;46.75;;;;;4.14;73.57;101810.75;5054510;28;46927;-57
2023/01/26 02:19:56;;;;;;;;;69.75;51.25;;;;;4.21;73.45;101815.97;5055220;28;45398;-60
2023/01/26 02:22:46;;;;;;;;;65.00;50.25;;;;;4.15;73.57;101806.38;5056342;28;45276;-59
2023/01/26 02:25:38;;;;;;;;;66.75;51.00;;;;;4.22;73.22;101823.00;5054370;28;45370;-60
2023/01/26 02:28:04;;;;;;;;;73.25;51.50;;;;;4.23;73.62;101815.06;5054812;28;45288;-58
2023/01/26 02:30:31;;;;;;;;;71.75;55.00;;;;;4.26;73.78;101819.44;5053348;28;45386;-59
2023/01/26 02:32:56;;;;;;;;;70.75;51.25;;;;;4.25;74.21;101817.69;5054890;28;45452;-53
2023/01/26 02:35:22;;;;;;;;;75.00;53.75;;;;;4.24;74.30;101818.56;5055662;28;45383;-60
2023/01/26 02:37:47;;;;;;;;;79.00;54.75;;;;;4.05;74.24;101795.09;5072379;28;46633;-59
2023/01/26 02:40:24;;;;;;;;;68.00;54.00;;;;;4.08;74.16;101809.97;5054797;28;45260;-60
2023/01/26 02:42:53;;;;;;;;;56.50;45.50;;;;;3.97;75.80;101811.81;5055808;28;45237;-59
2023/01/26 02:45:20;;;;;;;;;61.50;49.25;;;;;3.94;75.75;101807.47;5055751;28;45640;-65
2023/01/26 02:47:45;;;;;;;;;67.50;44.75;;;;;3.84;78.37;101808.44;5054525;28;47080;-65
2023/01/26 02:50:12;;;;;;;;;73.50;50.75;;;;;3.84;76.53;101809.31;5055507;28;45299;-64
2023/01/26 02:52:38;;;;;;;;;61.00;47.75;;;;;3.82;76.31;101802.31;5055993;28;45562;-62
2023/01/26 02:55:23;;;;;;;;;54.00;46.00;;;;;3.79;76.53;101802.34;5055528;28;45564;-66
2023/01/26 02:57:54;;;;;;;;;69.75;52.75;;;;;3.79;76.35;101802.34;5055911;28;46086;-62
2023/01/26 03:00:22;;;;;;;;;66.75;52.50;;;;;3.73;76.57;101794.50;5058527;27;45425;-64
2023/01/26 03:02:50;;;;;;;;;71.00;50.25;;;;;3.75;75.95;101790.09;5057304;28;45452;-59
2023/01/26 03:05:16;;;;;;;;;67.25;52.25;;;;;3.81;75.85;101796.19;5059488;28;45246;-63
2023/01/26 03:07:41;;;;;;;;;68.50;48.00;;;;;3.69;76.31;101777.88;5058301;28;45719;-54
2023/01/26 03:10:08;;;;;;;;;66.00;49.50;;;;;3.85;76.58;101800.53;5058885;28;45424;-56
2023/01/26 03:12:33;;;;;;;;;63.50;45.50;;;;;3.77;76.43;101789.19;5059351;28;45310;-61
2023/01/26 03:17:43;;;;;;;;;55.75;42.00;;;;;3.75;76.17;101790.09;5059695;28;45729;-62
2023/01/26 03:28:21;;;;;;;;;70.25;51.00;;;;;3.48;75.92;101744.72;5057830;28;45693;-67
2023/01/26 03:30:52;;;;;;;;;62.75;50.00;;;;;3.72;76.16;101774.34;5058497;28;45248;-61
2023/01/26 03:33:19;;;;;;;;;64.00;48.00;;;;;3.70;76.55;101765.59;5057626;28;45500;-63
2023/01/26 03:35:45;;;;;;;;;59.75;43.50;;;;;3.69;75.78;101769.97;5059741;28;45573;-64
2023/01/26 03:38:11;;;;;;;;;50.50;37.00;;;;;3.71;76.06;101770.84;5056783;28;45529;-64
2023/01/26 03:57:02;;;;;;;;;60.75;46.75;;;;;3.59;76.77;101767.44;5057326;28;45481;-63
2023/01/26 03:59:36;;;;;;;;;64.25;48.00;;;;;3.54;76.58;101755.22;5058499;28;46340;-62
2023/01/26 04:10:17;;;;;;;;;66.50;47.25;;;;;3.60;76.51;101753.41;5057513;28;45686;-66
2023/01/26 04:12:43;;;;;;;;;66.25;47.25;;;;;3.61;76.85;101753.38;5056175;28;45318;-65
2023/01/26 04:23:20;;;;;;;;;59.75;41.50;;;;;3.60;76.79;101754.25;5058304;28;45429;-65
2023/01/26 04:25:47;;;;;;;;;53.50;44.75;;;;;3.55;76.98;101756.94;5057608;28;45777;-60
2023/01/26 04:28:12;;;;;;;;;52.75;47.25;;;;;3.56;76.42;101755.19;5057642;28;45334;-58
2023/01/26 04:30:38;;;;;;;;;60.75;45.75;;;;;3.62;76.71;101756.88;5056103;28;46397;-57
2023/01/26 04:33:03;;;;;;;;;48.00;44.25;;;;;3.63;76.78;101745.47;5057724;28;45375;-64
2023/01/26 04:35:29;;;;;;;;;56.00;43.75;;;;;3.71;76.95;101755.03;5055794;28;45507;-61
2023/01/26 04:37:54;;;;;;;;;53.25;44.00;;;;;3.72;76.85;101753.28;5057869;28;45621;-59
2023/01/26 04:40:20;;;;;;;;;62.75;46.00;;;;;3.73;76.65;101755.03;5057855;28;46394;-64
2023/01/26 04:42:45;;;;;;;;;57.25;40.50;;;;;3.75;77.08;101755.88;5058316;28;45409;-59
2023/01/26 04:45:11;;;;;;;;;54.75;44.00;;;;;3.79;76.71;101752.34;5056519;28;45212;-62
2023/01/26 04:47:37;;;;;;;;;69.50;44.50;;;;;3.83;76.86;101762.81;5055461;28;45577;-64
2023/01/26 04:50:02;;;;;;;;;64.25;38.00;;;;;3.83;77.39;101761.97;5057718;28;46441;-64
2023/01/26 04:52:28;;;;;;;;;60.00;45.75;;;;;3.89;77.79;101761.88;5055774;28;45557;-64
2023/01/26 04:54:53;;;;;;;;;57.75;46.00;;;;;3.89;76.40;101761.00;5056353;28;45650;-60
2023/01/26 04:57:19;;;;;;;;;52.75;42.50;;;;;3.85;76.97;101749.66;5058466;28;45640;-65
2023/01/26 04:59:45;;;;;;;;;59.75;46.00;;;;;3.92;77.12;101758.38;5056957;28;46114;-62
2023/01/26 05:02:11;;;;;;;;;51.00;42.50;;;;;3.90;77.43;101763.63;5055779;28;46028;-58
2023/01/26 05:04:36;;;;;;;;;49.25;41.25;;;;;3.96;78.05;101745.16;5058134;28;45489;-62
2023/01/26 05:07:02;;;;;;;;;51.50;42.50;;;;;3.95;78.02;101753.94;5057342;28;45361;-62
2023/01/26 05:09:27;;;;;;;;;47.00;40.50;;;;;3.94;77.55;101739.03;5056298;28;46403;-65
2023/01/26 05:11:52;;;;;;;;;57.25;43.00;;;;;4.02;77.29;101752.97;5057386;28;45258;-64
2023/01/26 05:14:18;;;;;;;;;59.50;49.00;;;;;3.96;82.39;101747.78;5056514;28;45423;-59
2023/01/26 05:16:43;;;;;;;;;60.25;45.25;;;;;3.97;78.62;101751.28;5057585;28;45314;-58
2023/01/26 05:19:08;;;;;;;;;61.50;45.25;;;;;4.00;77.33;101757.38;5056495;28;45514;-60
2023/01/26 05:21:34;;;;;;;;;66.75;46.25;;;;;3.94;77.24;101739.03;5055513;28;46023;-57
2023/01/26 05:23:59;;;;;;;;;60.50;46.25;;;;;3.99;77.66;101754.78;5055727;28;45344;-60
2023/01/26 05:26:24;;;;;;;;;53.25;43.50;;;;;3.97;77.30;101754.78;5057835;28;45785;-57
2023/01/26 05:28:50;;;;;;;;;49.00;39.00;;;;;4.02;77.24;101757.38;5056907;28;45552;-63
2023/01/26 05:31:15;;;;;;;;;55.75;46.75;;;;;4.01;78.13;101756.50;5056617;28;45385;-66
2023/01/26 05:33:41;;;;;;;;;52.75;44.00;;;;;4.04;78.07;101750.34;5052185;28;45539;-64
2023/01/26 05:36:07;;;;;;;;;55.25;43.50;;;;;4.07;77.41;101751.19;5063391;27;45428;-65
2023/01/26 05:38:33;;;;;;;;;49.25;38.25;;;;;4.05;77.10;101752.97;5056784;28;46203;-62
2023/01/26 05:40:58;;;;;;;;;58.25;47.50;;;;;4.06;76.85;101754.72;5054949;28;45586;-64
2023/01/26 05:43:24;;;;;;;;;53.00;43.25;;;;;4.09;77.27;101748.53;5054866;28;45295;-59
2023/01/26 05:45:49;;;;;;;;;56.25;39.50;;;;;4.15;77.78;101758.97;5056123;27;45619;-61
2023/01/26 05:48:15;;;;;;;;;60.25;44.00;;;;;4.17;76.66;101761.59;5055634;28;46170;-61
2023/01/26 05:50:40;;;;;;;;;51.50;42.25;;;;;4.11;77.78;101747.63;5056132;28;45387;-65
2023/01/26 05:53:06;;;;;;;;;67.25;43.75;;;;;4.10;77.62;101753.78;5055371;28;45608;-59
2023/01/26 05:55:31;;;;;;;;;48.75;44.50;;;;;4.08;76.82;101755.56;5056946;28;45432;-60
2023/01/26 05:57:57;;;;;;;;;63.50;46.50;;;;;4.07;77.40;101745.91;5055533;28;45440;-56
2023/01/26 06:00:22;;;;;;;;;61.50;43.50;;;;;4.08;76.90;101747.66;5056415;28;45386;-66
2023/01/26 06:02:48;;;;;;;;;60.75;48.00;;;;;3.98;78.04;101735.47;5057232;28;45371;-66
2023/01/26 06:05:14;;;;;;;;;53.00;45.00;;;;;4.04;76.98;101756.50;5058762;28;45525;-62
2023/01/26 06:07:39;;;;;;;;;47.50;43.00;;;;;4.04;77.16;101761.75;5057057;28;45369;-66
2023/01/26 06:10:05;;;;;;;;;55.00;42.00;;;;;4.05;77.41;101762.63;5055473;28;45595;-62
2023/01/26 06:12:34;;;;;;;;;62.25;49.00;;;;;4.00;77.06;101757.38;5056214;28;45377;-59
2023/01/26 06:15:00;;;;;;;;;66.00;45.25;;;;;4.06;77.56;101764.38;5061233;28;45614;-64
2023/01/26 06:17:26;;;;;;;;;63.75;44.50;;;;;4.03;78.83;101770.50;5061994;28;47096;-66
2023/01/26 06:19:51;;;;;;;;;58.00;47.25;;;;;3.93;78.04;101749.59;5056155;28;45509;-61
2023/01/26 06:22:17;;;;;;;;;46.25;38.50;;;;;3.95;77.98;101753.94;5056585;28;45465;-54
2023/01/26 06:24:42;;;;;;;;;61.25;49.50;;;;;3.96;77.43;101752.19;5055586;28;45493;-59
2023/01/26 06:27:12;;;;;;;;;65.25;45.75;;;;;3.93;78.04;101757.47;5064925;28;46058;-61
2023/01/26 06:29:37;;;;;;;;;61.50;46.00;;;;;3.92;77.12;101739.94;5055012;28;45542;-64
2023/01/26 06:32:02;;;;;;;;;55.00;40.75;;;;;3.94;77.89;101736.41;5056130;28;45469;-64
2023/01/26 06:34:28;;;;;;;;;49.50;41.75;;;;;3.93;78.01;101742.56;5056701;28;45532;-64
2023/01/26 06:36:53;;;;;;;;;58.25;47.50;;;;;4.02;77.34;101752.97;5073771;28;46606;-62
2023/01/26 06:39:19;;;;;;;;;62.75;44.00;;;;;4.05;77.89;101755.59;5061944;28;45436;-63
2023/01/26 06:41:44;;;;;;;;;55.75;47.50;;;;;4.06;77.40;101759.09;5059072;27;45180;-66
2023/01/26 06:44:10;;;;;;;;;57.50;41.25;;;;;4.05;78.59;101768.75;5056547;28;45643;-66
2023/01/26 06:46:35;;;;;;;;;68.75;51.75;;;;;4.04;78.45;101767.00;5055950;28;45412;-64
2023/01/26 06:49:02;;;;;;;;;52.50;45.25;;;;;3.96;78.18;101774.09;5054913;28;45417;-66
2023/01/26 06:51:28;;;;;;;;;71.75;51.75;;;;;3.91;79.16;101770.66;5056358;28;45431;-58
2023/01/26 06:53:55;;;;;;;;;61.00;47.50;;;;;3.85;79.88;101770.69;5056716;28;45448;-59
2023/01/26 06:56:22;;;;;;;;;66.25;45.00;;;;;3.82;79.49;101771.63;5056188;28;45558;-62
2023/01/26 06:58:48;;;;;;;;;57.50;44.00;;;;;3.69;79.28;101774.38;5067863;28;45472;-56
2023/01/26 07:01:17;;;;;;;;;57.50;47.50;;;;;3.64;79.73;101757.72;5067335;27;45334;-63
2023/01/26 07:03:42;;;;;;;;;68.25;51.25;;;;;3.82;79.72;101773.38;5055989;28;45477;-53
2023/01/26 07:06:10;;;;;;;;;68.75;47.50;;;;;3.84;79.09;101766.34;5036332;28;47631;-54
2023/01/26 07:08:36;;;;;;;;;69.25;49.25;;;;;3.76;78.57;101758.50;5054237;28;45374;-58
2023/01/26 07:11:02;;;;;;;;;56.50;47.25;;;;;3.80;78.87;101754.97;5055691;28;45272;-59
2023/01/26 07:13:28;;;;;;;;;58.25;49.25;;;;;3.84;78.99;101769.84;5056032;28;45247;-63
2023/01/26 07:16:01;;;;;;;;;73.75;46.00;;;;;3.93;78.15;101773.28;5055788;28;45276;-60
2023/01/26 07:18:26;;;;;;;;;55.00;44.00;;;;;3.94;77.87;101781.16;5054966;28;45295;-55
2023/01/26 07:20:51;;;;;;;;;60.75;44.00;;;;;3.94;77.79;101781.16;5056238;28;45290;-56
2023/01/26 07:23:17;;;;;;;;;66.75;44.75;;;;;3.86;78.11;101761.91;5055006;28;45185;-61
2023/01/26 07:25:43;;;;;;;;;51.25;42.00;;;;;3.98;78.68;101784.63;5055288;28;45506;-52
2023/01/26 07:28:11;;;;;;;;;44.25;33.00;;;;;3.99;78.18;101781.97;5054336;28;45457;-52
2023/01/26 07:30:36;;;;;;;;;60.25;45.00;;;;;4.03;77.77;101778.41;5058987;28;45387;-51
2023/01/26 07:33:02;;;;;;;;;63.25;42.75;;;;;4.06;77.93;101778.41;5055368;28;45251;-56
2023/01/26 07:35:28;;;;;;;;;64.00;50.00;;;;;4.07;78.23;101788.03;5054650;28;45333;-62
2023/01/26 07:37:54;;;;;;;;;50.50;39.25;;;;;4.12;77.65;101775.69;5058967;28;45341;-56
2023/01/26 07:40:19;;;;;;;;;75.25;51.50;;;;;4.15;77.71;101775.66;5053626;28;45575;-57
2023/01/26 07:42:45;;;;;;;;;62.50;51.00;;;;;4.22;77.64;101780.88;5066863;28;45310;-57
2023/01/26 07:45:11;;;;;;;;;70.25;47.50;;;;;4.25;77.32;101786.09;5059936;28;45459;-58
2023/01/26 07:47:37;;;;;;;;;70.00;47.50;;;;;4.26;77.00;101777.28;5057202;28;45317;-62
2023/01/26 07:50:05;;;;;;;;;73.25;52.50;;;;;4.23;77.23;101783.47;5060543;28;45487;-54
2023/01/26 07:52:31;;;;;;;;;68.75;50.25;;;;;4.18;76.69;101784.44;5057775;28;45526;-58
2023/01/26 07:54:56;;;;;;;;;61.50;46.50;;;;;4.13;76.68;101787.97;5057352;28;46407;-60
2023/01/26 07:57:22;;;;;;;;;50.50;38.75;;;;;4.15;76.95;101791.44;5056232;28;45393;-61
2023/01/26 07:59:47;;;;;;;;;65.25;49.50;;;;;4.22;76.73;101796.66;5059345;28;45637;-63
2023/01/26 08:02:13;;;;;;;;;63.75;50.50;;;;;4.24;76.88;101779.06;5059574;28;45854;-62
2023/01/26 08:04:38;;;;;;;;;62.50;47.75;;;;;4.27;76.71;101790.44;5056857;28;51287;-56
2023/01/26 08:07:07;;;;;;;;;63.00;45.50;;;;;4.31;76.16;101807.09;5057195;28;45413;-60
2023/01/26 08:09:32;;;;;;;;;63.50;46.50;;;;;4.31;75.68;101800.06;5058877;28;45322;-57
2023/01/26 08:11:58;;;;;;;;;68.00;46.25;;;;;4.29;76.72;101798.31;5056650;28;45331;-55
2023/01/26 08:14:23;;;;;;;;;48.25;39.50;;;;;4.34;76.51;101797.41;5059256;28;46783;-63
2023/01/26 08:16:49;;;;;;;;;52.25;44.75;;;;;4.40;75.67;101809.63;5058093;28;45361;-60
2023/01/26 08:19:14;;;;;;;;;48.75;42.25;;;;;4.35;75.95;101803.53;5060392;28;45789;-61
2023/01/26 08:21:39;;;;;;;;;67.25;49.00;;;;;4.27;75.12;101814.13;5058802;28;45487;-58
2023/01/26 08:24:06;;;;;;;;;57.75;47.00;;;;;4.24;75.41;101823.84;5072468;27;46507;-58
2023/01/26 08:26:31;;;;;;;;;66.50;46.25;;;;;4.26;76.84;101822.94;5070875;28;45594;-61
2023/01/26 08:28:57;;;;;;;;;62.00;47.00;;;;;4.33;76.52;101827.25;5046138;28;45405;-60
2023/01/26 08:31:24;;;;;;;;;67.50;50.00;;;;;4.41;76.28;101827.16;5057631;28;45502;-58
2023/01/26 08:33:51;;;;;;;;;66.50;50.75;;;;;4.45;76.10;101831.53;5066300;28;45350;-59
2023/01/26 08:36:21;;;;;;;;;55.25;43.50;;;;;4.44;75.22;101835.06;5079642;27;45238;-56
2023/01/26 08:38:46;;;;;;;;;75.75;47.50;;;;;4.38;76.04;101830.72;5063944;27;45316;-57
2023/01/26 08:41:12;;;;;;;;;58.25;48.25;;;;;4.40;76.17;101823.66;5071341;28;45256;-52
2023/01/26 08:43:37;;;;;;;;;70.25;51.75;;;;;4.50;75.07;101842.88;5056682;28;46109;-57
2023/01/26 08:46:06;;;;;;;;;51.00;46.25;;;;;4.52;74.69;101843.72;5048555;28;45338;-54
2023/01/26 08:48:38;;;;;;;;;69.50;46.75;;;;;4.55;74.68;101845.44;5044669;28;45386;-55
2023/01/26 08:51:08;;;;;;;;;61.75;46.75;;;;;4.57;74.50;101836.66;5066693;28;45464;-54
2023/01/26 08:53:36;;;;;;;;;62.00;46.50;;;;;4.63;75.18;101847.13;5060288;28;46720;-58
2023/01/26 08:56:07;;;;;;;;;56.50;47.50;;;;;4.61;74.59;101848.91;5057794;28;45517;-64
2023/01/26 08:58:33;;;;;;;;;55.25;41.00;;;;;4.58;74.57;101843.66;5057102;28;45512;-62
2023/01/26 09:01:02;;;;;;;;;67.25;46.50;;;;;4.50;74.96;101845.50;5058218;28;45593;-58
2023/01/26 09:03:31;;;;;;;;;57.75;47.00;;;;;4.40;75.49;101849.13;5063109;28;46212;-58
2023/01/26 09:06:11;;;;;;;;;56.25;40.50;;;;;4.52;75.63;101856.91;5058729;28;45731;-53
2023/01/26 09:08:42;;;;;;;;;51.00;41.75;;;;;4.61;74.45;101854.16;5059270;28;45494;-56
2023/01/26 09:11:08;;;;;;;;;61.75;46.50;;;;;4.56;74.68;101848.09;5058621;28;45299;-58
2023/01/26 09:13:36;;;;;;;;;49.25;39.25;;;;;4.43;73.82;101843.84;5056385;28;45303;-62
2023/01/26 09:16:06;;;;;;;;;51.75;37.75;;;;;4.49;74.15;101858.69;5058220;28;45369;-56
2023/01/26 09:18:35;;;;;;;;;57.00;45.25;;;;;4.50;74.88;101863.06;5056252;28;45460;-54
2023/01/26 09:21:07;;;;;;;;;71.25;49.50;;;;;4.57;74.90;101862.13;5057242;28;45339;-53
2023/01/26 09:23:34;;;;;;;;;56.50;42.00;;;;;4.72;75.30;101862.81;5058694;28;45411;-65
2023/01/26 09:26:02;;;;;;;;;60.75;44.00;;;;;4.76;75.10;101868.06;5057765;28;45365;-66
2023/01/26 09:28:28;;;;;;;;;53.75;42.75;;;;;4.73;74.38;101874.25;5057679;28;45307;-60
2023/01/26 09:30:56;;;;;;;;;58.75;42.75;;;;;4.71;74.53;101871.63;5058015;28;45278;-56
2023/01/26 09:33:22;;;;;;;;;56.25;42.25;;;;;4.67;74.72;101869.91;5072734;27;46792;-65
2023/01/26 09:35:48;;;;;;;;;60.75;44.25;;;;;4.63;75.05;101876.09;5059095;28;45223;-66
2023/01/26 09:38:23;;;;;;;;;61.50;44.50;;;;;4.67;75.25;101880.44;5073209;28;45434;-67
2023/01/26 09:41:33;;;;;;;;;58.50;46.75;;;;;4.70;74.79;101880.44;5074251;28;45421;-66
2023/01/26 09:44:33;;;;;;;;;65.00;50.50;;;;;4.83;74.41;101885.56;5055178;28;45540;-65
2023/01/26 09:47:22;;;;;;;;;64.00;43.25;;;;;4.85;74.99;101879.38;5058704;28;45296;-58
2023/01/26 09:50:01;;;;;;;;;66.75;46.75;;;;;4.86;74.14;101885.50;5062410;28;45398;-54
2023/01/26 09:52:32;;;;;;;;;62.00;47.00;;;;;4.81;74.45;101871.50;5061049;28;45433;-60
2023/01/26 09:55:01;;;;;;;;;63.50;51.25;;;;;4.82;75.08;101875.88;5060788;27;45397;-63
2023/01/26 09:57:27;;;;;;;;;60.00;48.00;;;;;4.86;75.57;101880.25;5077263;27;45239;-64
2023/01/26 10:00:00;;;;;;;;;60.25;46.00;;;;;4.93;74.45;101884.53;5075748;27;45456;-54
2023/01/26 10:02:52;;;;;;;;;57.25;43.75;;;;;5.01;74.28;101885.31;5055169;28;45523;-60
2023/01/26 10:05:31;;;;;;;;;65.75;49.25;;;;;5.05;74.28;101884.38;5056684;28;45505;-58
2023/01/26 10:07:57;;;;;;;;;52.75;35.75;;;;;5.11;74.12;101884.31;5054910;28;45334;-67
2023/01/26 10:10:38;;;;;;;;;66.50;46.75;;;;;5.12;75.00;101878.16;5052529;28;45371;-66
2023/01/26 10:13:04;;;;;;;;;50.50;44.25;;;;;5.10;74.99;101879.06;5038162;28;45477;-70
2023/01/26 10:15:37;;;;;;;;;70.50;49.25;;;;;5.13;74.42;101869.34;5054528;28;45605;-66
2023/01/26 10:18:14;;;;;;;;;50.75;39.50;;;;;5.25;74.04;101885.00;5052971;28;45441;-61
2023/01/26 10:20:54;;;;;;;;;49.50;40.25;;;;;5.07;74.30;101885.22;5094816;27;45420;-57
2023/01/26 10:23:35;;;;;;;;;58.50;43.00;;;;;5.06;75.28;101891.41;5069540;28;45434;-65
2023/01/26 10:26:12;;;;;;;;;47.25;42.75;;;;;5.18;74.98;101899.16;5075611;27;46834;-67
2023/01/26 10:28:41;;;;;;;;;45.50;41.50;;;;;5.24;74.33;101898.22;5046277;28;45520;-66
2023/01/26 10:31:14;;;;;;;;;61.50;46.25;;;;;5.26;73.73;101876.19;5050232;28;45389;-64
2023/01/26 10:33:49;;;;;;;;;43.50;40.25;;;;;5.31;73.79;101882.28;5065356;28;45437;-59
2023/01/26 10:36:15;;;;;;;;;55.00;44.75;;;;;5.39;74.12;101892.72;5062394;28;45489;-64
2023/01/26 10:38:43;;;;;;;;;45.75;40.50;;;;;5.42;73.68;101891.81;5080011;27;45417;-70
2023/01/26 10:41:17;;;;;;;;;57.75;44.25;;;;;5.44;74.37;101895.28;5066734;27;45392;-68
2023/01/26 10:44:01;;;;;;;;;44.75;41.25;;;;;5.44;74.05;101871.56;5065297;28;45397;-70
2023/01/26 10:46:28;;;;;;;;;54.25;44.00;;;;;5.48;74.43;101881.19;5063883;28;46259;-68
2023/01/26 10:48:55;;;;;;;;;48.50;43.50;;;;;5.50;74.90;101879.41;5057388;28;45376;-68
2023/01/26 10:51:32;;;;;;;;;41.25;36.75;;;;;5.53;74.54;101877.56;5052940;28;45464;-60
2023/01/26 10:54:17;;;;;;;;;54.00;40.75;;;;;5.55;73.74;101872.28;5052844;28;45413;-56
2023/01/26 10:56:50;;;;;;;;;49.75;43.00;;;;;5.62;73.04;101868.66;5053588;28;46474;-60
2023/01/26 10:59:38;;;;;;;;;41.50;35.00;;;;;5.68;73.64;101865.03;5069842;28;45698;-68
2023/01/26 11:02:18;;;;;;;;;49.25;42.00;;;;;5.71;73.22;101873.78;5054398;27;45383;-67
2023/01/26 11:05:22;;;;;;;;;52.50;37.25;;;;;5.78;72.95;101864.88;5051220;28;45958;-57
2023/01/26 11:07:50;;;;;;;;;49.50;41.50;;;;;5.56;72.64;101831.78;5083799;27;46803;-59
2023/01/26 11:10:30;;;;;;;;;41.00;38.25;;;;;5.86;71.90;101859.50;5035469;28;45410;-63
2023/01/26 11:13:19;;;;;;;;;44.50;39.25;;;;;5.95;72.50;101861.97;5036229;28;45213;-69
2023/01/26 11:16:14;;;;;;;;;41.50;34.25;;;;;6.04;72.12;101845.13;5036571;28;45389;-61
2023/01/26 11:18:42;;;;;;;;;44.50;39.50;;;;;6.20;71.33;101849.22;5052112;28;46940;-67
2023/01/26 11:21:32;;;;;;;;;49.25;39.75;;;;;6.21;71.40;101848.31;5073690;28;45409;-66
2023/01/26 11:24:16;;;;;;;;;55.25;43.25;;;;;6.31;71.81;101846.41;5069152;28;45349;-70
2023/01/26 11:27:15;;;;;;;;;47.75;40.25;;;;;6.41;71.44;101851.50;5074781;28;45378;-65
2023/01/26 11:30:14;;;;;;;;;56.75;46.75;;;;;6.35;71.00;101848.94;5058777;28;45465;-60
2023/01/26 11:33:03;;;;;;;;;55.50;47.00;;;;;6.14;71.86;101820.31;5049274;28;45441;-60
2023/01/26 11:35:33;;;;;;;;;47.50;41.25;;;;;6.42;71.32;101842.66;5089478;27;45496;-53
2023/01/26 11:38:38;;;;;;;;;46.25;41.00;;;;;6.52;71.29;101845.13;5059133;28;45510;-54
2023/01/26 11:41:28;;;;;;;;;42.50;36.75;;;;;6.54;71.41;101840.69;5058761;28;46215;-59
2023/01/26 11:44:20;;;;;;;;;37.75;30.75;;;;;6.45;70.88;101839.94;5058921;28;45417;-57
2023/01/26 11:47:24;;;;;;;;;52.25;39.50;;;;;6.45;71.54;101834.66;5060937;28;45353;-66
2023/01/26 11:50:13;;;;;;;;;52.75;41.00;;;;;6.52;71.94;101837.22;5060522;28;45779;-60
2023/01/26 11:52:45;;;;;;;;;54.75;40.25;;;;;6.60;71.53;101836.13;5058490;28;45394;-52
2023/01/26 11:55:14;;;;;;;;;38.50;33.75;;;;;6.56;71.67;101838.88;5057983;28;45329;-60
2023/01/26 11:57:58;;;;;;;;;48.25;43.50;;;;;6.48;71.88;101837.25;5059234;28;45287;-63
2023/01/26 12:00:29;;;;;;;;;52.75;37.00;;;;;6.41;71.97;101838.28;5045712;28;45519;-62
2023/01/26 12:03:10;;;;;;;;;46.50;38.25;;;;;6.34;72.33;101843.69;5038506;28;45691;-63
2023/01/26 12:05:51;;;;;;;;;39.75;33.25;;;;;6.06;74.57;101833.63;5038051;28;45412;-66
2023/01/26 12:08:22;;;;;;;;;43.25;34.00;;;;;5.99;74.39;101842.56;5058521;28;45349;-65
2023/01/26 12:11:20;;;;;;;;;39.75;29.00;;;;;5.88;74.92;101833.94;5053915;28;45570;-60
2023/01/26 12:13:56;;;;;;;;;33.25;32.00;;;;;5.72;74.37;101833.28;5048716;28;46360;-63
2023/01/26 12:16:38;;;;;;;;;46.00;35.25;;;;;5.70;74.83;101835.09;5073871;28;45512;-60